Aspinwall, Pennsylvania
Current Conditions -  °F | °C
As of 6:53 AM on Monday 20 Oct 2014 (Local Time) from KAGC Reporting Station
Clear Clear  
Wind Chill: 37°   Ceiling: Unl
Heat Index: 42°   Visibility: 10mi
Dew Point: 33°   Wind: 8mph
Humidity: 70%   Direction: 170°S
Pressure: 30.01"   Gusts: NA
Location:  40.5049°N, 79.9132°W
Report Text: KAGC 201053Z 17007KT 10SM CLR 06/01 A3001 RMK AO2 SLP173 T00560006
Loading
Personal Weather Stations






























Interactive Weather Map New forecast layout! Learn more

10-Day Weather Forecast

Advertisements
Track Severe Weather on mobile